RJFF I M0130
RNAV RWY16 USING RWY 16 DEP FREQ 127.9 ADZ FUKUOKA APP IF UNA RNAV APCH TWY W3 CLSD DUE TO CONST M 170130Z 31006KT 250V010 35KM FEW035CU 22/07 Q1015/A2999= Q/TWO NINE NINE NINE STP

TAF RJFF 162306Z 1700/1806 31012KT 9999 FEW030
BECMG 1712/1715 14005KT
BECMG 1800/1803 31010KT